Lisa IV — 9HA2872 — position and weather

sailwx.info

Track history (hours):
 
Tides and Currents Weather Stations Pressure Air Temp Water Temp Dewpoint Dewpoint Depression Visibility Wind Speed Wind Dir Waves Ship Positions

Lisa IV

Last reported at 2014-Sep-16 16:17 UTC. Time now 2014-Sep-30 11:58 UTC.
Position N 43°41' E 007°22'.
Warning: this ship's position is 13 days out of date.

Length 48 m; draft 1.6 m.

Type: Other ship. MMSI: 256499000.

Date/timePositionNaut miles runAvg speedWind from/ knotsBaromVisibWave heightAir tempDewpointWater temp
2014-Sep-16 16:17N 43°41' E 007°22'912.7
2014-Sep-16 15:34N 43°38' E 007°10'9 8.8
2014-Sep-16 14:33N 43°31' E 007°02'0 0.0
2014-Sep-16 13:33N 43°31' E 007°02'0 0.0
2014-Sep-16 12:33N 43°31' E 007°02'1615.4
2014-Sep-16 11:32N 43°21' E 006°46'7 0.2
2014-Sep-14 16:21N 43°16' E 006°38'1012.8
2014-Sep-14 15:34N 43°22' E 006°50'13 9.9
2014-Sep-14 14:13N 43°32' E 007°01'0 0.0
2014-Sep-14 13:31N 43°32' E 007°01'0 0.0
2014-Sep-14 12:26N 43°32' E 007°01'0 0.0
2014-Sep-14 11:24N 43°32' E 007°01'0 0.0
2014-Sep-14 10:28N 43°32' E 007°01'0 0.0
2014-Sep-14 08:27N 43°32' E 007°01'1011.7
2014-Sep-14 07:33N 43°23' E 006°54'1615.6
2014-Sep-14 06:33N 43°10' E 006°43'23616.7
2014-Sep-13 16:24N 40°17' E 003°08'1619.4
2014-Sep-13 15:33N 40°04' E 002°53'2120.7
2014-Sep-13 14:33N 39°49' E 002°35'2420.8
2014-Sep-13 13:24N 39°32' E 002°14'1920.9
2014-Sep-13 12:28N 39°17' E 001°57'1920.6
2014-Sep-13 11:33N 39°02' E 001°42'19 1.1
2014-Sep-12 18:33N 38°49' E 001°25'3 0.6
2014-Sep-12 13:27N 38°46' E 001°26'0 0.0
2014-Sep-12 12:33N 38°46' E 001°26'3 0.2
2014-Sep-11 18:33N 38°49' E 001°28'5 1.2
2014-Sep-11 14:33N 38°44' E 001°28'0 0.0
2014-Sep-11 13:33N 38°44' E 001°28'6 4.7
2014-Sep-11 12:21N 38°49' E 001°27'3 0.3
2014-Sep-11 00:26N 38°46' E 001°25'0 0.0
2014-Sep-10 13:06N 38°46' E 001°26'6 0.4
2014-Sep-09 20:14N 38°53' E 001°26'  
2014-Sep-07 07:12N 38°55' E 001°27'  
Track history (hours):
 
Tides and Currents Weather Stations Pressure Air Temp Water Temp Dewpoint Dewpoint Depression Visibility Wind Speed Wind Dir Waves Ship Positions

Lisa IV

Last reported at 2014-Sep-16 16:17 UTC. Time now 2014-Sep-30 11:58 UTC.
Position N 43°41' E 007°22'.
Warning: this ship's position is 13 days out of date.

Length 48 m; draft 1.6 m.

Type: Other ship. MMSI: 256499000.

Date/timePositionNaut miles runAvg speedWind from/ knotsBaromVisibWave heightAir tempDewpointWater temp
2014-Sep-16 16:17N 43°41' E 007°22'912.7
2014-Sep-16 15:34N 43°38' E 007°10'9 8.8
2014-Sep-16 14:33N 43°31' E 007°02'0 0.0
2014-Sep-16 13:33N 43°31' E 007°02'0 0.0
2014-Sep-16 12:33N 43°31' E 007°02'1615.4
2014-Sep-16 11:32N 43°21' E 006°46'7 0.2
2014-Sep-14 16:21N 43°16' E 006°38'1012.8
2014-Sep-14 15:34N 43°22' E 006°50'13 9.9
2014-Sep-14 14:13N 43°32' E 007°01'0 0.0
2014-Sep-14 13:31N 43°32' E 007°01'0 0.0
2014-Sep-14 12:26N 43°32' E 007°01'0 0.0
2014-Sep-14 11:24N 43°32' E 007°01'0 0.0
2014-Sep-14 10:28N 43°32' E 007°01'0 0.0
2014-Sep-14 08:27N 43°32' E 007°01'1011.7
2014-Sep-14 07:33N 43°23' E 006°54'1615.6
2014-Sep-14 06:33N 43°10' E 006°43'23616.7
2014-Sep-13 16:24N 40°17' E 003°08'1619.4
2014-Sep-13 15:33N 40°04' E 002°53'2120.7
2014-Sep-13 14:33N 39°49' E 002°35'2420.8
2014-Sep-13 13:24N 39°32' E 002°14'1920.9
2014-Sep-13 12:28N 39°17' E 001°57'1920.6
2014-Sep-13 11:33N 39°02' E 001°42'19 1.1
2014-Sep-12 18:33N 38°49' E 001°25'3 0.6
2014-Sep-12 13:27N 38°46' E 001°26'0 0.0
2014-Sep-12 12:33N 38°46' E 001°26'3 0.2
2014-Sep-11 18:33N 38°49' E 001°28'5 1.2
2014-Sep-11 14:33N 38°44' E 001°28'0 0.0
2014-Sep-11 13:33N 38°44' E 001°28'6 4.7
2014-Sep-11 12:21N 38°49' E 001°27'3 0.3
2014-Sep-11 00:26N 38°46' E 001°25'0 0.0
2014-Sep-10 13:06N 38°46' E 001°26'6 0.4
2014-Sep-09 20:14N 38°53' E 001°26'  
2014-Sep-07 07:12N 38°55' E 001°27'  

Dump ship's entire track history